الصفحة الرئيسية
METAR-TAF:

METAR-TAF

مطار :

سكاكا, السعودية

مطار الجوف المحلي

دائرة عرض: 29-47N, خط طول: 040-06E, ارتفاع: 689 متر

مراقبة الطقس الحالي

تاريخ ووقت الإصدار 1ساعة و 8 دقيقة قبل الساعة 13:00UTC
ريح 5 عقدة من الشمال الشرقي
درجة الحرارة 15°درجة مئوية
الرطوبة 31%
ضغط 1020 hPa
الرؤية 10 كم أو أكثر
غيوم قليلة على ارتفاع 4000 قدم

METAR: OESK 221300Z 04005KT 9999 FEW040 15/M02 Q1020 NOSIG

زمن: 17:08 (14:08 UTC)

توقعات

تاريخ ووقت الإصدار 3ساعات و 8 دقيقة قبل الساعة 11:00UTC
التوقعات صالحة من22 الساعة 12 UTC إلى 23 الساعة 18 UTC
ريح 10 عقدة من الشمال/الشمال الشرقي
الرؤية: 7000 متر
غيوم متفرقة على ارتفاع 4000 قدم
مؤقت
من 22 الساعة 12 UTC إلى 22 الساعة 18 UTC
الرؤية: 4000 متر
أصبح
من 23 الساعة 00 UTC إلى 23 الساعة 02 UTC
ريح 3 عقدةمن اتجاهات متغيرة

TAF: OESK 221100Z 2212/2318 02010KT 7000 SCT040 TEMPO 2212/2218 4000 DU/BLDU BECMG 2300/2302 VRB03KT

أرصاد الطقس والتوقعات من أكثر من 4000 مطار (تقارير الطقس للمطار METAR والتنبؤ بالطقس بالمطارTAF).

المحطات المتاحة هي النقط الصفراء والحمراء على الخريطة.

حرك المؤشر فوق النقطة لمعرفة اسم المحطة.

ثم انقر لمعرفة أرصاد وتوقعات الطقس.

لتغيير الخارطة: اضغط على الأزرار الخضراء مع رمز الصليب الأسود للتكبير. على الزر الأخضر مع شرطة للتصغير، أو على الأسهم الخضراء للخرائط المجاورة.


METAR-TAF: